createdAt,value
2023-03-20T00:00:25.482Z,46.67
2023-03-20T00:02:52.768Z,48.47
2023-03-20T00:05:21.374Z,50.47
2023-03-20T00:07:49.393Z,45.00
2023-03-20T00:10:17.939Z,45.77
2023-03-20T00:12:45.728Z,49.67
2023-03-20T00:15:36.505Z,46.20
2023-03-20T00:18:04.495Z,46.00
2023-03-20T00:20:31.814Z,43.37
2023-03-20T00:22:59.016Z,41.90
2023-03-20T00:25:27.075Z,44.30
2023-03-20T00:27:54.339Z,41.23
2023-03-20T00:30:23.687Z,41.83
2023-03-20T00:32:53.030Z,43.37
2023-03-20T00:35:28.052Z,43.80
2023-03-20T00:37:55.649Z,40.00
2023-03-20T00:40:22.943Z,39.67
2023-03-20T00:42:52.050Z,43.27
2023-03-20T00:45:21.110Z,39.50
2023-03-20T00:47:49.426Z,39.53
2023-03-20T00:50:17.869Z,40.47
2023-03-20T00:52:45.136Z,44.43
2023-03-20T00:55:12.734Z,39.13
2023-03-20T00:57:43.762Z,43.20
2023-03-20T01:00:28.094Z,40.47
2023-03-20T01:02:56.568Z,41.77
2023-03-20T01:05:23.730Z,45.73
2023-03-20T01:07:51.160Z,41.57
2023-03-20T01:10:18.634Z,43.00
2023-03-20T01:12:47.445Z,44.60
2023-03-20T01:15:17.764Z,42.23
2023-03-20T01:17:45.202Z,42.70
2023-03-20T01:20:16.760Z,49.43
2023-03-20T01:22:43.937Z,54.93
2023-03-20T01:25:11.467Z,48.17
2023-03-20T01:27:39.038Z,42.20
2023-03-20T01:30:16.580Z,43.93
2023-03-20T01:32:44.422Z,43.53
2023-03-20T01:35:13.865Z,46.20
2023-03-20T01:37:42.073Z,42.73
2023-03-20T01:40:18.670Z,43.17
2023-03-20T01:42:45.824Z,45.40
2023-03-20T01:45:16.539Z,48.33
2023-03-20T01:47:43.742Z,46.40
2023-03-20T01:50:26.450Z,43.47
2023-03-20T01:53:22.936Z,42.10
2023-03-20T01:55:52.153Z,45.70
2023-03-20T01:58:25.357Z,45.47
2023-03-20T02:00:53.501Z,45.33
2023-03-20T02:03:21.145Z,42.17
2023-03-20T02:05:48.655Z,43.93
2023-03-20T02:08:18.965Z,47.57
2023-03-20T02:10:47.622Z,48.27
2023-03-20T02:13:15.898Z,42.20
2023-03-20T02:16:03.797Z,46.67
2023-03-20T02:18:31.937Z,47.27
2023-03-20T02:21:17.860Z,44.70
2023-03-20T02:24:03.732Z,37.50
2023-03-20T02:26:46.346Z,44.00
2023-03-20T02:29:16.852Z,37.27
2023-03-20T02:32:02.742Z,32.97
2023-03-20T02:34:48.636Z,37.63
2023-03-20T02:37:31.027Z,34.87
2023-03-20T02:39:58.191Z,40.67
2023-03-20T02:42:33.737Z,38.70
2023-03-20T02:45:01.762Z,38.77
2023-03-20T02:47:42.274Z,29.03
2023-03-20T02:50:09.686Z,37.57
2023-03-20T02:52:39.936Z,35.93
2023-03-20T02:55:16.276Z,35.63
2023-03-20T02:57:49.369Z,35.00
2023-03-20T03:00:28.658Z,35.63
2023-03-20T03:03:00.411Z,33.67
2023-03-20T03:05:31.657Z,34.27
2023-03-20T03:08:00.835Z,31.47
2023-03-20T03:10:30.772Z,31.43
2023-03-20T03:12:59.587Z,34.57
2023-03-20T03:15:30.600Z,26.80
2023-03-20T03:17:58.971Z,38.93
2023-03-20T03:20:28.805Z,37.80
2023-03-20T03:22:56.489Z,31.80
2023-03-20T03:25:25.150Z,31.80
2023-03-20T03:27:57.782Z,33.50
2023-03-20T03:30:29.543Z,35.43
2023-03-20T03:33:35.926Z,33.70
2023-03-20T03:36:06.060Z,31.27
2023-03-20T03:38:46.447Z,23.03
2023-03-20T03:41:33.848Z,33.00
2023-03-20T03:44:06.499Z,26.80
2023-03-20T03:46:42.299Z,28.93
2023-03-20T03:49:13.485Z,25.47
2023-03-20T03:51:43.432Z,33.63
2023-03-20T03:54:22.935Z,27.17
2023-03-20T03:56:50.937Z,24.77
2023-03-20T03:59:31.255Z,28.70
2023-03-20T04:01:59.377Z,25.93
2023-03-20T04:04:27.480Z,21.97
2023-03-20T04:06:54.980Z,26.33
2023-03-20T04:09:22.140Z,23.67
2023-03-20T04:11:51.505Z,21.63
2023-03-20T04:14:18.935Z,25.00
2023-03-20T04:16:46.478Z,22.57
2023-03-20T04:19:13.602Z,22.60
2023-03-20T04:21:40.729Z,22.20
2023-03-20T04:24:07.966Z,25.93
2023-03-20T04:26:35.110Z,21.17
2023-03-20T04:29:03.002Z,20.87
2023-03-20T04:31:30.587Z,22.10
2023-03-20T04:33:57.788Z,21.13
2023-03-20T04:36:24.980Z,23.07
2023-03-20T04:38:52.149Z,25.47
2023-03-20T04:41:21.209Z,21.87
2023-03-20T04:43:48.433Z,21.23
2023-03-20T04:46:15.609Z,24.37
2023-03-20T04:48:42.774Z,20.23
2023-03-20T04:51:09.963Z,19.67
2023-03-20T04:53:37.272Z,27.33
2023-03-20T04:56:04.456Z,17.67
2023-03-20T04:58:31.717Z,22.50
2023-03-20T05:00:58.881Z,23.73
2023-03-20T05:03:27.582Z,20.90
2023-03-20T05:05:54.897Z,22.87
2023-03-20T05:08:22.034Z,23.50
2023-03-20T05:10:49.159Z,20.30
2023-03-20T05:13:16.306Z,19.27
2023-03-20T05:15:43.841Z,21.00
2023-03-20T05:18:10.996Z,24.60
2023-03-20T05:20:38.145Z,19.77
2023-03-20T05:23:06.442Z,18.60
2023-03-20T05:25:33.849Z,16.80
2023-03-20T05:28:01.148Z,13.63
2023-03-20T05:30:28.733Z,10.57
2023-03-20T05:32:56.558Z,12.00
2023-03-20T05:35:23.716Z,11.20
2023-03-20T05:37:50.864Z,11.40
2023-03-20T05:40:19.246Z,14.93
2023-03-20T05:42:46.851Z,14.13
2023-03-20T05:45:15.561Z,12.63
2023-03-20T05:47:42.755Z,12.30
2023-03-20T05:50:10.386Z,14.93
2023-03-20T05:52:37.538Z,14.43
2023-03-20T05:55:05.812Z,15.40
2023-03-20T05:57:32.941Z,15.80
2023-03-20T06:00:00.280Z,12.40
2023-03-20T06:02:27.459Z,15.80
2023-03-20T06:04:54.695Z,13.97
2023-03-20T06:07:22.132Z,14.43
2023-03-20T06:09:49.330Z,13.47
2023-03-20T06:12:16.458Z,16.00
2023-03-20T06:14:43.692Z,13.90
2023-03-20T06:17:11.056Z,12.00
2023-03-20T06:19:38.622Z,16.77
2023-03-20T06:22:05.917Z,14.27
2023-03-20T06:24:33.276Z,11.60
2023-03-20T06:27:00.442Z,14.10
2023-03-20T06:29:28.937Z,14.60
2023-03-20T06:31:56.962Z,12.47
2023-03-20T06:34:24.074Z,10.83
2023-03-20T06:36:51.216Z,9.27
2023-03-20T06:39:18.670Z,10.70
2023-03-20T06:41:45.814Z,11.50
2023-03-20T06:44:13.085Z,9.93
2023-03-20T06:46:40.371Z,13.17
2023-03-20T06:49:07.558Z,12.17
2023-03-20T06:51:34.687Z,12.00
2023-03-20T06:54:02.220Z,11.63
2023-03-20T06:56:29.378Z,10.90
2023-03-20T06:58:56.508Z,10.40
2023-03-20T07:01:24.302Z,10.60
2023-03-20T07:03:51.447Z,10.03
2023-03-20T07:06:18.819Z,10.53
2023-03-20T07:08:46.009Z,10.87
2023-03-20T07:11:14.346Z,10.33
2023-03-20T07:13:41.671Z,9.60
2023-03-20T07:16:09.102Z,9.77
2023-03-20T07:18:37.047Z,9.57
2023-03-20T07:21:06.341Z,7.83
2023-03-20T07:23:34.471Z,8.87
2023-03-20T07:26:01.860Z,8.37
2023-03-20T07:28:29.008Z,8.27
2023-03-20T07:30:56.777Z,8.70
2023-03-20T07:33:24.010Z,8.50
2023-03-20T07:35:54.488Z,7.97
2023-03-20T07:38:21.961Z,8.47
2023-03-20T07:40:49.320Z,8.00
2023-03-20T07:43:17.405Z,8.30
2023-03-20T07:45:44.954Z,7.93
2023-03-20T07:48:12.134Z,8.23
2023-03-20T07:50:39.310Z,7.50
2023-03-20T07:53:06.454Z,6.80
2023-03-20T07:55:33.576Z,5.77
2023-03-20T07:58:00.896Z,6.10
2023-03-20T08:00:28.536Z,5.50
2023-03-20T08:02:57.012Z,5.37
2023-03-20T08:05:24.923Z,4.60
2023-03-20T08:07:52.328Z,5.20
2023-03-20T08:10:19.796Z,4.30
2023-03-20T08:12:46.954Z,4.97
2023-03-20T08:15:14.095Z,3.90
2023-03-20T08:17:44.908Z,3.33
2023-03-20T08:20:13.043Z,3.40
2023-03-20T08:22:40.627Z,3.60
2023-03-20T08:25:08.527Z,3.37
2023-03-20T08:27:36.719Z,3.40
2023-03-20T08:30:04.405Z,3.40
2023-03-20T08:32:31.645Z,3.33
2023-03-20T08:34:58.764Z,3.07
2023-03-20T08:37:25.896Z,3.40
2023-03-20T08:39:53.456Z,3.83
2023-03-20T08:42:20.973Z,2.93
2023-03-20T08:44:48.279Z,3.00
2023-03-20T08:47:16.205Z,2.80
2023-03-20T08:49:43.697Z,2.97
2023-03-20T08:52:11.172Z,2.53
2023-03-20T08:54:38.308Z,2.30
2023-03-20T08:57:05.681Z,2.47
2023-03-20T08:59:32.980Z,2.30
2023-03-20T09:02:00.402Z,2.40
2023-03-20T09:04:27.991Z,2.20
2023-03-20T09:06:55.293Z,2.40
2023-03-20T09:09:29.345Z,2.47
2023-03-20T09:12:00.508Z,2.37
2023-03-20T09:14:28.476Z,2.37
2023-03-20T09:16:55.634Z,2.20
2023-03-20T09:19:22.798Z,2.37
2023-03-20T09:21:49.999Z,2.37
2023-03-20T09:24:17.121Z,2.17
2023-03-20T09:26:44.260Z,2.00
2023-03-20T09:29:11.406Z,2.03
2023-03-20T09:31:38.611Z,2.40
2023-03-20T09:34:06.222Z,1.90
2023-03-20T09:36:33.944Z,2.07
2023-03-20T09:39:01.649Z,2.40
2023-03-20T09:41:45.810Z,2.00
2023-03-20T09:44:26.028Z,2.17
2023-03-20T09:47:20.677Z,2.33
2023-03-20T09:50:07.755Z,2.20
2023-03-20T09:52:34.847Z,2.30
2023-03-20T09:55:04.402Z,2.50
2023-03-20T09:57:41.837Z,2.27
2023-03-20T10:00:13.416Z,2.30
2023-03-20T10:02:54.381Z,2.53
2023-03-20T10:05:32.390Z,2.03
2023-03-20T10:08:01.307Z,2.70
2023-03-20T10:10:32.704Z,2.43
2023-03-20T10:13:11.961Z,2.20
2023-03-20T10:15:47.507Z,2.00
2023-03-20T10:18:22.895Z,2.10
2023-03-20T10:20:59.548Z,2.27
2023-03-20T10:23:37.429Z,2.50
2023-03-20T10:26:07.683Z,2.23
2023-03-20T10:28:44.826Z,2.27
2023-03-20T10:31:31.066Z,2.53
2023-03-20T10:33:58.191Z,2.20
2023-03-20T10:36:25.436Z,2.70
2023-03-20T10:39:00.753Z,2.10
2023-03-20T10:41:32.697Z,2.70
2023-03-20T10:44:00.514Z,2.23
2023-03-20T10:46:36.200Z,2.30
2023-03-20T10:49:15.774Z,2.50
2023-03-20T10:51:47.593Z,2.27
2023-03-20T10:54:22.250Z,1.93
2023-03-20T10:56:50.592Z,2.50
2023-03-20T10:59:25.264Z,2.23
2023-03-20T11:01:52.843Z,2.47
2023-03-20T11:04:20.121Z,2.20
2023-03-20T11:06:50.357Z,2.07
2023-03-20T11:09:21.486Z,2.40
2023-03-20T11:11:49.420Z,2.70
2023-03-20T11:14:21.436Z,2.37
2023-03-20T11:16:50.035Z,2.60
2023-03-20T11:19:17.605Z,2.20
2023-03-20T11:21:56.183Z,2.40
2023-03-20T11:24:41.950Z,3.07
2023-03-20T11:27:09.159Z,2.50
2023-03-20T11:29:36.728Z,2.17
2023-03-20T11:32:04.855Z,2.57
2023-03-20T11:34:33.524Z,2.90
2023-03-20T11:37:10.206Z,2.57
2023-03-20T11:39:39.918Z,2.33
2023-03-20T11:42:20.736Z,2.93
2023-03-20T11:44:57.284Z,2.57
2023-03-20T11:47:26.134Z,2.67
2023-03-20T11:49:57.419Z,2.47
2023-03-20T11:52:39.091Z,2.57
2023-03-20T11:55:09.908Z,2.63
2023-03-20T11:57:38.797Z,2.37
2023-03-20T12:00:11.987Z,3.03
2023-03-20T12:02:41.732Z,2.47
2023-03-20T12:05:27.931Z,3.00
2023-03-20T12:07:58.125Z,3.43
2023-03-20T12:10:29.058Z,3.40
2023-03-20T12:12:59.330Z,2.80
2023-03-20T12:15:32.213Z,2.90
2023-03-20T12:18:05.172Z,2.73
2023-03-20T12:20:37.887Z,2.87
2023-03-20T12:23:11.583Z,2.47
2023-03-20T12:25:41.769Z,2.40
2023-03-20T12:28:32.165Z,2.93
2023-03-20T12:31:14.600Z,3.10
2023-03-20T12:34:03.508Z,2.43
2023-03-20T12:36:35.386Z,2.20
2023-03-20T12:39:03.482Z,2.37
2023-03-20T12:41:35.843Z,2.30
2023-03-20T12:44:09.015Z,2.50
2023-03-20T12:46:36.288Z,2.40
2023-03-20T12:49:09.642Z,2.57
2023-03-20T12:51:44.877Z,2.90
2023-03-20T12:54:17.796Z,2.60
2023-03-20T12:56:44.920Z,2.50
2023-03-20T12:59:28.218Z,2.70
2023-03-20T13:02:03.821Z,2.77
2023-03-20T13:04:43.086Z,2.47
2023-03-20T13:07:33.409Z,2.60
2023-03-20T13:10:01.289Z,2.30
2023-03-20T13:12:41.320Z,2.70
2023-03-20T13:15:25.210Z,2.57
2023-03-20T13:18:10.461Z,2.50
2023-03-20T13:20:44.081Z,2.63
2023-03-20T13:23:22.855Z,2.47
2023-03-20T13:25:49.959Z,2.00
2023-03-20T13:28:35.880Z,1.83
2023-03-20T13:31:18.221Z,2.77
2023-03-20T13:33:57.356Z,2.90
2023-03-20T13:36:39.849Z,2.80
2023-03-20T13:39:13.061Z,3.00
2023-03-20T13:41:40.342Z,2.60
2023-03-20T13:44:10.447Z,2.80
2023-03-20T13:46:41.512Z,3.07
2023-03-20T13:49:31.429Z,2.57
2023-03-20T13:52:15.054Z,2.07
2023-03-20T13:54:48.305Z,3.40
2023-03-20T13:57:15.443Z,2.93
2023-03-20T14:00:01.913Z,2.90
2023-03-20T14:02:36.660Z,2.93
2023-03-20T14:05:11.567Z,3.07
2023-03-20T14:07:39.958Z,2.37
2023-03-20T14:10:33.332Z,2.60
2023-03-20T14:13:01.623Z,2.77
2023-03-20T14:15:32.146Z,2.40
2023-03-20T14:17:59.364Z,2.80
2023-03-20T14:20:26.521Z,2.80
2023-03-20T14:22:53.666Z,3.00
2023-03-20T14:25:21.794Z,2.80
2023-03-20T14:27:57.203Z,2.30
2023-03-20T14:30:30.820Z,3.30
2023-03-20T14:33:07.228Z,2.57
2023-03-20T14:35:38.601Z,2.60
2023-03-20T14:38:21.178Z,2.23
2023-03-20T14:41:08.563Z,2.70
2023-03-20T14:43:58.512Z,2.20
2023-03-20T14:46:41.239Z,2.73
2023-03-20T14:49:21.014Z,2.37
2023-03-20T14:51:48.997Z,2.17
2023-03-20T14:54:22.149Z,2.67
2023-03-20T14:56:50.847Z,2.60
2023-03-20T14:59:18.847Z,2.93
2023-03-20T15:01:47.546Z,2.70
2023-03-20T15:04:17.844Z,2.73
2023-03-20T15:07:08.241Z,2.83
2023-03-20T15:09:37.449Z,2.73
2023-03-20T15:12:05.064Z,2.77
2023-03-20T15:14:52.471Z,3.00
2023-03-20T15:17:21.797Z,2.57
2023-03-20T15:19:51.976Z,2.77
2023-03-20T15:22:20.341Z,2.50
2023-03-20T15:24:55.791Z,2.63
2023-03-20T15:27:26.027Z,2.57
2023-03-20T15:29:54.949Z,3.00
2023-03-20T15:32:22.447Z,3.07
2023-03-20T15:34:50.995Z,2.47
2023-03-20T15:37:20.838Z,3.00
2023-03-20T15:39:49.487Z,2.57
2023-03-20T15:42:18.430Z,2.70
2023-03-20T15:44:48.068Z,3.13
2023-03-20T15:47:20.921Z,2.53
2023-03-20T15:49:55.680Z,2.37
2023-03-20T15:52:32.113Z,2.60
2023-03-20T15:55:00.118Z,2.60
2023-03-20T15:57:33.645Z,2.47
2023-03-20T16:00:02.900Z,2.50
2023-03-20T16:02:30.801Z,2.80
2023-03-20T16:04:58.118Z,2.77
2023-03-20T16:07:29.820Z,2.90
2023-03-20T16:09:57.061Z,3.00
2023-03-20T16:12:26.634Z,3.20
2023-03-20T16:14:54.061Z,2.73
2023-03-20T16:17:22.557Z,2.80
2023-03-20T16:19:49.770Z,2.50
2023-03-20T16:22:28.620Z,3.03
2023-03-20T16:24:58.218Z,3.20
2023-03-20T16:27:29.560Z,2.60
2023-03-20T16:29:56.964Z,3.03
2023-03-20T16:32:27.947Z,2.57
2023-03-20T16:34:56.825Z,2.47
2023-03-20T16:37:23.922Z,2.97
2023-03-20T16:40:02.011Z,2.90
2023-03-20T16:42:29.842Z,2.87
2023-03-20T16:44:57.646Z,2.70
2023-03-20T16:47:36.129Z,3.10
2023-03-20T16:50:09.646Z,3.70
2023-03-20T16:52:38.231Z,3.60
2023-03-20T16:55:05.904Z,3.30
2023-03-20T16:57:37.121Z,3.37
2023-03-20T17:00:08.301Z,3.37
2023-03-20T17:02:41.106Z,3.00
2023-03-20T17:05:12.860Z,2.87
2023-03-20T17:07:40.318Z,2.53
2023-03-20T17:10:16.556Z,3.10
2023-03-20T17:12:44.868Z,3.00
2023-03-20T17:15:16.508Z,3.00
2023-03-20T17:17:44.072Z,2.60
2023-03-20T17:20:26.234Z,3.37
2023-03-20T17:22:53.538Z,3.67
2023-03-20T17:25:21.034Z,4.20
2023-03-20T17:27:48.404Z,4.53
2023-03-20T17:30:20.586Z,5.00
2023-03-20T17:32:47.953Z,5.67
2023-03-20T17:35:15.411Z,6.20
2023-03-20T17:37:42.913Z,5.67
2023-03-20T17:40:19.538Z,5.43
2023-03-20T17:42:47.142Z,5.07
2023-03-20T17:45:15.230Z,5.40
2023-03-20T17:47:43.402Z,5.60
2023-03-20T17:50:19.718Z,5.73
2023-03-20T17:52:46.966Z,5.30
2023-03-20T17:55:15.678Z,5.10
2023-03-20T17:57:43.491Z,4.87
2023-03-20T18:00:28.765Z,5.37
2023-03-20T18:02:56.077Z,5.30
2023-03-20T18:05:23.331Z,4.83
2023-03-20T18:07:50.605Z,5.10
2023-03-20T18:10:24.522Z,5.20
2023-03-20T18:12:51.672Z,6.13
2023-03-20T18:15:18.879Z,6.00
2023-03-20T18:17:46.091Z,5.70
2023-03-20T18:20:22.328Z,5.50
2023-03-20T18:22:49.554Z,4.03
2023-03-20T18:25:16.746Z,4.50
2023-03-20T18:27:44.677Z,4.80
2023-03-20T18:30:18.902Z,4.50
2023-03-20T18:32:47.358Z,3.50
2023-03-20T18:35:14.547Z,3.70
2023-03-20T18:37:41.897Z,3.47
2023-03-20T18:40:28.881Z,3.67
2023-03-20T18:42:57.365Z,3.30
2023-03-20T18:45:25.102Z,3.43
2023-03-20T18:47:52.507Z,3.40
2023-03-20T18:50:19.632Z,3.33
2023-03-20T18:52:46.744Z,3.70
2023-03-20T18:55:13.935Z,4.20
2023-03-20T18:57:44.253Z,3.40
2023-03-20T19:00:23.712Z,3.13
2023-03-20T19:02:51.691Z,3.30
2023-03-20T19:05:19.392Z,3.53
2023-03-20T19:07:46.989Z,3.63
2023-03-20T19:10:23.356Z,4.00
2023-03-20T19:12:51.113Z,4.30
2023-03-20T19:15:18.592Z,4.63
2023-03-20T19:17:45.722Z,5.00
2023-03-20T19:20:36.601Z,4.70
2023-03-20T19:23:04.687Z,5.03
2023-03-20T19:25:32.171Z,5.10
2023-03-20T19:27:59.626Z,4.67
2023-03-20T19:30:27.212Z,4.60
2023-03-20T19:32:55.195Z,4.33
2023-03-20T19:38:13.653Z,4.40
2023-03-20T19:40:43.305Z,4.67
2023-03-20T19:43:10.971Z,4.93
2023-03-20T19:45:39.470Z,5.10
2023-03-20T19:48:17.104Z,5.27
2023-03-20T19:50:46.677Z,6.00
2023-03-20T19:53:15.845Z,5.97
2023-03-20T19:55:43.080Z,6.30
2023-03-20T19:58:10.621Z,6.37
2023-03-20T20:03:26.336Z,7.50
2023-03-20T20:05:53.963Z,7.13
2023-03-20T20:08:41.341Z,7.03
2023-03-20T20:11:11.774Z,6.40
2023-03-20T20:13:57.291Z,6.77
2023-03-20T20:16:26.360Z,6.63
2023-03-20T20:18:53.496Z,7.27
2023-03-20T20:22:10.018Z,6.87
2023-03-20T20:24:07.882Z,6.63
2023-03-20T20:26:40.595Z,6.80
2023-03-20T20:29:12.400Z,7.30
2023-03-20T20:31:39.605Z,6.40
2023-03-20T20:35:13.741Z,6.70
2023-03-20T20:39:41.111Z,6.80
2023-03-20T20:42:08.291Z,7.07
2023-03-20T20:44:35.889Z,6.20
2023-03-20T20:47:03.086Z,6.77
2023-03-20T20:49:30.582Z,7.13
2023-03-20T20:51:58.322Z,7.10
2023-03-20T20:54:26.232Z,6.80
2023-03-20T20:56:53.748Z,6.93
2023-03-20T20:59:21.004Z,7.57
2023-03-20T21:01:49.293Z,7.50
2023-03-20T21:04:16.550Z,7.17
2023-03-20T21:07:08.244Z,7.80
2023-03-20T21:09:30.901Z,7.93
2023-03-20T21:11:58.075Z,7.73
2023-03-20T21:14:25.298Z,7.20
2023-03-20T21:16:53.146Z,6.80
2023-03-20T21:19:20.375Z,6.97
2023-03-20T21:21:47.621Z,7.20
2023-03-20T21:24:31.582Z,6.77
2023-03-20T21:27:00.463Z,6.80
2023-03-20T21:29:27.694Z,6.40
2023-03-20T21:31:54.878Z,6.53
2023-03-20T21:34:22.040Z,6.13
2023-03-20T21:36:50.942Z,6.60
2023-03-20T21:39:18.328Z,6.60
2023-03-20T21:41:46.102Z,6.60
2023-03-20T21:44:17.755Z,7.07
2023-03-20T21:47:20.068Z,7.30
2023-03-20T22:07:17.883Z,6.23
2023-03-20T22:12:50.140Z,6.03
2023-03-20T22:18:05.821Z,6.60
2023-03-20T22:21:13.390Z,6.20
2023-03-20T22:23:45.682Z,6.40
2023-03-20T22:32:18.262Z,6.37
2023-03-20T22:35:04.328Z,6.13
2023-03-20T22:37:46.314Z,5.73
2023-03-20T22:40:37.089Z,5.13
2023-03-20T22:43:05.826Z,5.90
2023-03-20T22:45:37.679Z,5.23
2023-03-20T22:48:11.556Z,5.50
2023-03-20T22:50:40.206Z,5.67
2023-03-20T22:53:07.465Z,5.83
2023-03-20T22:55:34.630Z,6.10
2023-03-20T22:58:07.376Z,6.50
2023-03-20T23:00:36.514Z,6.00
2023-03-20T23:03:37.606Z,6.40
2023-03-20T23:05:52.632Z,6.47
2023-03-20T23:08:20.197Z,6.67
2023-03-20T23:10:48.061Z,6.37
2023-03-20T23:13:15.583Z,6.63
2023-03-20T23:15:42.894Z,6.00
2023-03-20T23:18:10.665Z,6.77
2023-03-20T23:20:38.113Z,6.60
2023-03-20T23:23:05.671Z,6.50
2023-03-20T23:25:39.154Z,5.83
2023-03-20T23:28:07.907Z,6.60
2023-03-20T23:30:44.332Z,6.23
2023-03-20T23:33:13.635Z,6.23
2023-03-20T23:35:40.888Z,5.40
2023-03-20T23:38:08.048Z,5.87
2023-03-20T23:40:35.609Z,6.03
2023-03-20T23:43:02.913Z,5.83
2023-03-20T23:45:30.056Z,5.70
2023-03-20T23:47:57.203Z,5.43
2023-03-20T23:50:36.689Z,4.40
2023-03-20T23:53:19.790Z,4.40
2023-03-20T23:55:48.393Z,4.40
2023-03-20T23:58:16.280Z,4.53
